sensor_id;sensor_type;location;lat;lon;timestamp;P1;durP1;ratioP1;P2;durP2;ratioP2
6561;SDS011;3314;50.890;4.722;2022-08-20T00:00:16;11.1;;;3.1;;
6561;SDS011;3314;50.890;4.722;2022-08-20T00:02:16;11.8;;;3.3;;
6561;SDS011;3314;50.890;4.722;2022-08-20T00:04:16;10.5;;;3.1;;
6561;SDS011;3314;50.890;4.722;2022-08-20T00:06:17;11.2;;;3.3;;
6561;SDS011;3314;50.890;4.722;2022-08-20T00:08:17;10.8;;;3.0;;
6561;SDS011;3314;50.890;4.722;2022-08-20T00:10:17;10.1;;;3.5;;
6561;SDS011;3314;50.890;4.722;2022-08-20T00:12:18;10.5;;;3.0;;
6561;SDS011;3314;50.890;4.722;2022-08-20T00:14:11;11.9;;;3.4;;
6561;SDS011;3314;50.890;4.722;2022-08-20T00:16:13;10.2;;;3.1;;
6561;SDS011;3314;50.890;4.722;2022-08-20T00:18:13;9.5;;;3.5;;
6561;SDS011;3314;50.890;4.722;2022-08-20T00:20:13;10.8;;;3.1;;
6561;SDS011;3314;50.890;4.722;2022-08-20T00:22:13;11.5;;;3.5;;
6561;SDS011;3314;50.890;4.722;2022-08-20T00:24:13;9.4;;;2.9;;
6561;SDS011;3314;50.890;4.722;2022-08-20T00:26:12;9.8;;;3.3;;
6561;SDS011;3314;50.890;4.722;2022-08-20T00:28:12;9.2;;;3.0;;
6561;SDS011;3314;50.890;4.722;2022-08-20T00:30:12;8.8;;;2.6;;
6561;SDS011;3314;50.890;4.722;2022-08-20T00:32:12;9.3;;;2.9;;
6561;SDS011;3314;50.890;4.722;2022-08-20T00:34:12;10.8;;;2.7;;
6561;SDS011;3314;50.890;4.722;2022-08-20T00:36:12;10.3;;;3.4;;
6561;SDS011;3314;50.890;4.722;2022-08-20T00:38:11;8.7;;;2.9;;
6561;SDS011;3314;50.890;4.722;2022-08-20T00:40:12;9.1;;;2.6;;
6561;SDS011;3314;50.890;4.722;2022-08-20T00:42:12;11.3;;;3.2;;
6561;SDS011;3314;50.890;4.722;2022-08-20T00:44:13;10.8;;;2.5;;
6561;SDS011;3314;50.890;4.722;2022-08-20T00:46:14;11.4;;;3.2;;
6561;SDS011;3314;50.890;4.722;2022-08-20T00:48:14;9.1;;;2.9;;
6561;SDS011;3314;50.890;4.722;2022-08-20T00:50:17;8.3;;;2.7;;
6561;SDS011;3314;50.890;4.722;2022-08-20T00:52:07;10.9;;;3.0;;
6561;SDS011;3314;50.890;4.722;2022-08-20T00:54:09;12.6;;;3.2;;
6561;SDS011;3314;50.890;4.722;2022-08-20T00:56:10;8.9;;;2.7;;
6561;SDS011;3314;50.890;4.722;2022-08-20T00:58:10;10.8;;;3.6;;
6561;SDS011;3314;50.890;4.722;2022-08-20T01:00:12;8.3;;;2.6;;
6561;SDS011;3314;50.890;4.722;2022-08-20T01:02:14;10.5;;;2.9;;
6561;SDS011;3314;50.890;4.722;2022-08-20T01:04:14;9.7;;;2.8;;
6561;SDS011;3314;50.890;4.722;2022-08-20T01:06:14;9.0;;;2.4;;
6561;SDS011;3314;50.890;4.722;2022-08-20T01:08:13;9.6;;;2.4;;
6561;SDS011;3314;50.890;4.722;2022-08-20T01:10:15;8.6;;;2.5;;
6561;SDS011;3314;50.890;4.722;2022-08-20T01:12:05;12.3;;;2.6;;
6561;SDS011;3314;50.890;4.722;2022-08-20T01:14:15;11.7;;;2.6;;
6561;SDS011;3314;50.890;4.722;2022-08-20T01:16:07;9.6;;;2.7;;
6561;SDS011;3314;50.890;4.722;2022-08-20T01:18:16;12.6;;;2.5;;
6561;SDS011;3314;50.890;4.722;2022-08-20T01:20:11;9.8;;;2.5;;
6561;SDS011;3314;50.890;4.722;2022-08-20T01:23:29;10.9;;;2.7;;
6561;SDS011;3314;50.890;4.722;2022-08-20T01:24:10;11.2;;;3.0;;
6561;SDS011;3314;50.890;4.722;2022-08-20T01:26:13;8.9;;;2.3;;
6561;SDS011;3314;50.890;4.722;2022-08-20T01:28:04;9.1;;;2.6;;
6561;SDS011;3314;50.890;4.722;2022-08-20T01:30:04;10.4;;;3.0;;
6561;SDS011;3314;50.890;4.722;2022-08-20T01:32:04;13.5;;;3.0;;
6561;SDS011;3314;50.890;4.722;2022-08-20T01:34:06;12.2;;;3.1;;
6561;SDS011;3314;50.890;4.722;2022-08-20T01:36:06;10.5;;;2.8;;
6561;SDS011;3314;50.890;4.722;2022-08-20T01:38:07;11.6;;;3.1;;
6561;SDS011;3314;50.890;4.722;2022-08-20T01:40:07;8.8;;;2.6;;
6561;SDS011;3314;50.890;4.722;2022-08-20T01:42:10;11.4;;;2.8;;
6561;SDS011;3314;50.890;4.722;2022-08-20T01:44:12;11.7;;;2.4;;
6561;SDS011;3314;50.890;4.722;2022-08-20T01:46:13;11.4;;;2.7;;
6561;SDS011;3314;50.890;4.722;2022-08-20T01:48:13;12.1;;;2.6;;
6561;SDS011;3314;50.890;4.722;2022-08-20T01:50:04;12.1;;;2.6;;
6561;SDS011;3314;50.890;4.722;2022-08-20T01:52:07;11.9;;;2.6;;
6561;SDS011;3314;50.890;4.722;2022-08-20T01:54:07;10.5;;;2.4;;
6561;SDS011;3314;50.890;4.722;2022-08-20T01:56:08;17.6;;;2.6;;
6561;SDS011;3314;50.890;4.722;2022-08-20T01:58:08;13.1;;;2.3;;
6561;SDS011;3314;50.890;4.722;2022-08-20T02:00:09;11.3;;;2.5;;
6561;SDS011;3314;50.890;4.722;2022-08-20T02:02:10;9.2;;;2.1;;
6561;SDS011;3314;50.890;4.722;2022-08-20T02:04:10;10.9;;;2.5;;
6561;SDS011;3314;50.890;4.722;2022-08-20T02:06:10;13.1;;;2.3;;
6561;SDS011;3314;50.890;4.722;2022-08-20T02:08:10;11.7;;;2.5;;
6561;SDS011;3314;50.890;4.722;2022-08-20T02:10:11;11.8;;;2.2;;
6561;SDS011;3314;50.890;4.722;2022-08-20T02:12:11;14.4;;;2.3;;
6561;SDS011;3314;50.890;4.722;2022-08-20T02:14:01;9.8;;;2.0;;
6561;SDS011;3314;50.890;4.722;2022-08-20T02:16:02;9.7;;;2.0;;
6561;SDS011;3314;50.890;4.722;2022-08-20T02:18:03;14.3;;;2.1;;
6561;SDS011;3314;50.890;4.722;2022-08-20T02:20:04;13.6;;;2.5;;
6561;SDS011;3314;50.890;4.722;2022-08-20T02:22:08;11.2;;;2.0;;
6561;SDS011;3314;50.890;4.722;2022-08-20T02:24:10;9.9;;;1.9;;
6561;SDS011;3314;50.890;4.722;2022-08-20T02:26:09;19.7;;;2.5;;
6561;SDS011;3314;50.890;4.722;2022-08-20T02:28:10;13.7;;;2.0;;
6561;SDS011;3314;50.890;4.722;2022-08-20T02:30:12;12.3;;;2.5;;
6561;SDS011;3314;50.890;4.722;2022-08-20T02:32:00;11.1;;;1.9;;
6561;SDS011;3314;50.890;4.722;2022-08-20T02:34:00;13.1;;;2.3;;
6561;SDS011;3314;50.890;4.722;2022-08-20T02:36:00;13.3;;;2.4;;
6561;SDS011;3314;50.890;4.722;2022-08-20T02:38:00;11.4;;;2.2;;
6561;SDS011;3314;50.890;4.722;2022-08-20T02:40:00;15.0;;;2.8;;
6561;SDS011;3314;50.890;4.722;2022-08-20T02:42:02;12.7;;;2.5;;
6561;SDS011;3314;50.890;4.722;2022-08-20T02:44:02;10.1;;;1.9;;
6561;SDS011;3314;50.890;4.722;2022-08-20T02:46:02;13.1;;;2.9;;
6561;SDS011;3314;50.890;4.722;2022-08-20T02:48:02;12.4;;;1.7;;
6561;SDS011;3314;50.890;4.722;2022-08-20T02:50:04;10.6;;;2.7;;
6561;SDS011;3314;50.890;4.722;2022-08-20T02:52:04;10.1;;;2.4;;
6561;SDS011;3314;50.890;4.722;2022-08-20T02:54:03;13.4;;;3.0;;
6561;SDS011;3314;50.890;4.722;2022-08-20T02:56:03;10.7;;;2.4;;
6561;SDS011;3314;50.890;4.722;2022-08-20T02:58:03;12.1;;;2.1;;
6561;SDS011;3314;50.890;4.722;2022-08-20T03:00:04;10.1;;;2.5;;
6561;SDS011;3314;50.890;4.722;2022-08-20T03:02:04;12.2;;;2.0;;
6561;SDS011;3314;50.890;4.722;2022-08-20T03:04:04;12.4;;;2.3;;
6561;SDS011;3314;50.890;4.722;2022-08-20T03:06:04;8.4;;;2.3;;
6561;SDS011;3314;50.890;4.722;2022-08-20T03:08:04;12.5;;;2.4;;
6561;SDS011;3314;50.890;4.722;2022-08-20T03:10:04;12.2;;;2.1;;
6561;SDS011;3314;50.890;4.722;2022-08-20T03:12:04;12.5;;;2.9;;
6561;SDS011;3314;50.890;4.722;2022-08-20T03:14:05;10.4;;;2.5;;
6561;SDS011;3314;50.890;4.722;2022-08-20T03:16:05;12.6;;;2.4;;
6561;SDS011;3314;50.890;4.722;2022-08-20T03:18:06;12.9;;;2.7;;
6561;SDS011;3314;50.890;4.722;2022-08-20T03:20:06;9.3;;;2.3;;
6561;SDS011;3314;50.890;4.722;2022-08-20T03:22:06;10.0;;;2.2;;
6561;SDS011;3314;50.890;4.722;2022-08-20T03:24:06;10.1;;;2.7;;
6561;SDS011;3314;50.890;4.722;2022-08-20T03:26:07;10.7;;;2.7;;
6561;SDS011;3314;50.890;4.722;2022-08-20T03:27:56;14.0;;;2.1;;
6561;SDS011;3314;50.890;4.722;2022-08-20T03:29:59;11.1;;;2.3;;
6561;SDS011;3314;50.890;4.722;2022-08-20T03:31:58;10.3;;;2.3;;
6561;SDS011;3314;50.890;4.722;2022-08-20T03:33:58;11.2;;;2.3;;
6561;SDS011;3314;50.890;4.722;2022-08-20T03:35:58;13.1;;;2.8;;
6561;SDS011;3314;50.890;4.722;2022-08-20T03:37:58;13.4;;;2.4;;
6561;SDS011;3314;50.890;4.722;2022-08-20T03:39:58;14.7;;;2.0;;
6561;SDS011;3314;50.890;4.722;2022-08-20T03:41:58;15.9;;;2.7;;
6561;SDS011;3314;50.890;4.722;2022-08-20T03:43:57;11.8;;;2.7;;
6561;SDS011;3314;50.890;4.722;2022-08-20T03:45:57;13.9;;;2.6;;
6561;SDS011;3314;50.890;4.722;2022-08-20T03:47:58;10.2;;;2.4;;
6561;SDS011;3314;50.890;4.722;2022-08-20T03:49:58;12.9;;;2.5;;
6561;SDS011;3314;50.890;4.722;2022-08-20T03:51:58;11.9;;;2.9;;
6561;SDS011;3314;50.890;4.722;2022-08-20T03:53:58;10.2;;;2.4;;
6561;SDS011;3314;50.890;4.722;2022-08-20T03:56:00;11.2;;;2.6;;
6561;SDS011;3314;50.890;4.722;2022-08-20T03:58:03;11.8;;;2.3;;
6561;SDS011;3314;50.890;4.722;2022-08-20T04:00:06;13.4;;;2.7;;
6561;SDS011;3314;50.890;4.722;2022-08-20T04:01:54;14.3;;;2.5;;
6561;SDS011;3314;50.890;4.722;2022-08-20T04:03:54;9.2;;;2.0;;
6561;SDS011;3314;50.890;4.722;2022-08-20T04:05:54;15.8;;;2.9;;
6561;SDS011;3314;50.890;4.722;2022-08-20T04:07:54;9.8;;;2.2;;
6561;SDS011;3314;50.890;4.722;2022-08-20T04:09:54;11.5;;;2.8;;
6561;SDS011;3314;50.890;4.722;2022-08-20T04:12:00;13.5;;;3.3;;
6561;SDS011;3314;50.890;4.722;2022-08-20T04:13:59;13.7;;;3.3;;
6561;SDS011;3314;50.890;4.722;2022-08-20T04:16:00;12.8;;;2.8;;
6561;SDS011;3314;50.890;4.722;2022-08-20T04:18:00;12.5;;;2.9;;
6561;SDS011;3314;50.890;4.722;2022-08-20T04:20:01;16.1;;;3.7;;
6561;SDS011;3314;50.890;4.722;2022-08-20T04:22:01;13.1;;;2.9;;
6561;SDS011;3314;50.890;4.722;2022-08-20T04:24:01;14.1;;;3.8;;
6561;SDS011;3314;50.890;4.722;2022-08-20T04:26:01;12.2;;;2.7;;
6561;SDS011;3314;50.890;4.722;2022-08-20T04:28:02;11.6;;;2.9;;
6561;SDS011;3314;50.890;4.722;2022-08-20T04:29:52;15.0;;;3.2;;
6561;SDS011;3314;50.890;4.722;2022-08-20T04:31:52;10.7;;;2.9;;
6561;SDS011;3314;50.890;4.722;2022-08-20T04:33:51;11.6;;;3.4;;
6561;SDS011;3314;50.890;4.722;2022-08-20T04:35:51;10.8;;;3.2;;
6561;SDS011;3314;50.890;4.722;2022-08-20T04:38:13;13.4;;;3.5;;
6561;SDS011;3314;50.890;4.722;2022-08-20T04:40:53;16.7;;;3.7;;
6561;SDS011;3314;50.890;4.722;2022-08-20T04:41:53;15.0;;;2.8;;
6561;SDS011;3314;50.890;4.722;2022-08-20T04:43:53;12.3;;;2.8;;
6561;SDS011;3314;50.890;4.722;2022-08-20T04:45:55;13.9;;;2.9;;
6561;SDS011;3314;50.890;4.722;2022-08-20T04:47:55;14.9;;;3.2;;
6561;SDS011;3314;50.890;4.722;2022-08-20T04:49:59;14.1;;;3.0;;
6561;SDS011;3314;50.890;4.722;2022-08-20T04:51:59;14.0;;;3.5;;
6561;SDS011;3314;50.890;4.722;2022-08-20T04:53:58;15.4;;;3.5;;
6561;SDS011;3314;50.890;4.722;2022-08-20T04:55:59;14.7;;;3.0;;
6561;SDS011;3314;50.890;4.722;2022-08-20T04:58:02;13.9;;;3.6;;
6561;SDS011;3314;50.890;4.722;2022-08-20T04:59:51;13.5;;;3.4;;
6561;SDS011;3314;50.890;4.722;2022-08-20T05:01:51;15.0;;;4.2;;
6561;SDS011;3314;50.890;4.722;2022-08-20T05:03:53;16.4;;;3.3;;
6561;SDS011;3314;50.890;4.722;2022-08-20T05:05:53;18.7;;;3.2;;
6561;SDS011;3314;50.890;4.722;2022-08-20T05:07:53;17.2;;;3.6;;
6561;SDS011;3314;50.890;4.722;2022-08-20T05:09:52;15.8;;;3.8;;
6561;SDS011;3314;50.890;4.722;2022-08-20T05:11:52;16.3;;;3.5;;
6561;SDS011;3314;50.890;4.722;2022-08-20T05:13:52;12.9;;;3.6;;
6561;SDS011;3314;50.890;4.722;2022-08-20T05:15:52;12.5;;;3.5;;
6561;SDS011;3314;50.890;4.722;2022-08-20T05:17:53;16.4;;;3.3;;
6561;SDS011;3314;50.890;4.722;2022-08-20T05:19:53;14.7;;;3.6;;
6561;SDS011;3314;50.890;4.722;2022-08-20T05:21:53;19.3;;;3.8;;
6561;SDS011;3314;50.890;4.722;2022-08-20T05:23:53;14.5;;;3.8;;
6561;SDS011;3314;50.890;4.722;2022-08-20T05:25:52;13.3;;;3.2;;
6561;SDS011;3314;50.890;4.722;2022-08-20T05:27:54;23.2;;;4.5;;
6561;SDS011;3314;50.890;4.722;2022-08-20T05:29:58;13.7;;;3.8;;
6561;SDS011;3314;50.890;4.722;2022-08-20T05:31:47;16.4;;;3.9;;
6561;SDS011;3314;50.890;4.722;2022-08-20T05:33:50;14.8;;;4.5;;
6561;SDS011;3314;50.890;4.722;2022-08-20T05:35:52;19.0;;;4.3;;
6561;SDS011;3314;50.890;4.722;2022-08-20T05:37:52;11.9;;;3.4;;
6561;SDS011;3314;50.890;4.722;2022-08-20T05:39:55;15.8;;;3.6;;
6561;SDS011;3314;50.890;4.722;2022-08-20T05:41:54;14.8;;;3.4;;
6561;SDS011;3314;50.890;4.722;2022-08-20T05:43:54;13.3;;;3.4;;
6561;SDS011;3314;50.890;4.722;2022-08-20T05:45:56;14.5;;;3.1;;
6561;SDS011;3314;50.890;4.722;2022-08-20T05:47:56;15.5;;;3.5;;
6561;SDS011;3314;50.890;4.722;2022-08-20T05:49:56;11.7;;;3.8;;
6561;SDS011;3314;50.890;4.722;2022-08-20T05:51:56;17.6;;;3.7;;
6561;SDS011;3314;50.890;4.722;2022-08-20T05:53:56;11.7;;;3.8;;
6561;SDS011;3314;50.890;4.722;2022-08-20T05:55:46;17.4;;;5.2;;
6561;SDS011;3314;50.890;4.722;2022-08-20T05:57:45;14.9;;;4.5;;
6561;SDS011;3314;50.890;4.722;2022-08-20T05:59:45;18.6;;;3.3;;
6561;SDS011;3314;50.890;4.722;2022-08-20T06:01:45;16.3;;;4.5;;
6561;SDS011;3314;50.890;4.722;2022-08-20T06:04:48;15.3;;;4.0;;
6561;SDS011;3314;50.890;4.722;2022-08-20T06:05:49;16.8;;;4.3;;
6561;SDS011;3314;50.890;4.722;2022-08-20T06:07:50;16.9;;;3.6;;
6561;SDS011;3314;50.890;4.722;2022-08-20T06:09:51;15.3;;;3.9;;
6561;SDS011;3314;50.890;4.722;2022-08-20T06:11:50;13.6;;;3.3;;
6561;SDS011;3314;50.890;4.722;2022-08-20T06:13:50;15.5;;;3.3;;
6561;SDS011;3314;50.890;4.722;2022-08-20T06:15:50;14.7;;;3.7;;
6561;SDS011;3314;50.890;4.722;2022-08-20T06:17:49;18.4;;;3.7;;
6561;SDS011;3314;50.890;4.722;2022-08-20T06:19:49;17.9;;;4.0;;
6561;SDS011;3314;50.890;4.722;2022-08-20T06:21:49;18.0;;;3.2;;
6561;SDS011;3314;50.890;4.722;2022-08-20T06:23:48;20.8;;;4.5;;
6561;SDS011;3314;50.890;4.722;2022-08-20T06:25:49;12.4;;;3.2;;
6561;SDS011;3314;50.890;4.722;2022-08-20T06:27:49;20.3;;;4.4;;
6561;SDS011;3314;50.890;4.722;2022-08-20T06:29:49;19.0;;;4.2;;
6561;SDS011;3314;50.890;4.722;2022-08-20T06:31:49;18.4;;;4.7;;
6561;SDS011;3314;50.890;4.722;2022-08-20T06:33:48;15.2;;;4.3;;
6561;SDS011;3314;50.890;4.722;2022-08-20T06:35:48;15.9;;;3.7;;
6561;SDS011;3314;50.890;4.722;2022-08-20T06:37:48;15.2;;;4.2;;
6561;SDS011;3314;50.890;4.722;2022-08-20T06:39:48;17.7;;;4.1;;
6561;SDS011;3314;50.890;4.722;2022-08-20T06:41:48;19.5;;;4.3;;
6561;SDS011;3314;50.890;4.722;2022-08-20T06:43:47;15.7;;;4.0;;
6561;SDS011;3314;50.890;4.722;2022-08-20T06:45:47;19.0;;;4.1;;
6561;SDS011;3314;50.890;4.722;2022-08-20T06:47:47;20.5;;;4.2;;
6561;SDS011;3314;50.890;4.722;2022-08-20T06:49:47;13.8;;;4.6;;
6561;SDS011;3314;50.890;4.722;2022-08-20T06:51:46;19.2;;;3.6;;
6561;SDS011;3314;50.890;4.722;2022-08-20T06:53:47;22.2;;;4.3;;
6561;SDS011;3314;50.890;4.722;2022-08-20T06:55:47;17.5;;;4.0;;
6561;SDS011;3314;50.890;4.722;2022-08-20T06:57:54;20.4;;;4.0;;
6561;SDS011;3314;50.890;4.722;2022-08-20T06:59:42;17.1;;;4.3;;
6561;SDS011;3314;50.890;4.722;2022-08-20T07:01:41;17.4;;;4.3;;
6561;SDS011;3314;50.890;4.722;2022-08-20T07:03:41;18.1;;;4.8;;
6561;SDS011;3314;50.890;4.722;2022-08-20T07:05:42;22.0;;;5.0;;
6561;SDS011;3314;50.890;4.722;2022-08-20T07:07:43;20.7;;;4.5;;
6561;SDS011;3314;50.890;4.722;2022-08-20T07:09:43;27.7;;;4.7;;
6561;SDS011;3314;50.890;4.722;2022-08-20T07:11:43;19.0;;;4.2;;
6561;SDS011;3314;50.890;4.722;2022-08-20T07:13:42;20.3;;;5.1;;
6561;SDS011;3314;50.890;4.722;2022-08-20T07:15:43;21.8;;;4.7;;
6561;SDS011;3314;50.890;4.722;2022-08-20T07:17:47;15.5;;;4.7;;
6561;SDS011;3314;50.890;4.722;2022-08-20T07:19:47;27.9;;;6.7;;
6561;SDS011;3314;50.890;4.722;2022-08-20T07:21:47;27.0;;;6.3;;
6561;SDS011;3314;50.890;4.722;2022-08-20T07:23:48;20.8;;;5.9;;
6561;SDS011;3314;50.890;4.722;2022-08-20T07:25:48;22.7;;;5.9;;
6561;SDS011;3314;50.890;4.722;2022-08-20T07:27:48;25.7;;;5.7;;
6561;SDS011;3314;50.890;4.722;2022-08-20T07:31:55;26.1;;;5.8;;
6561;SDS011;3314;50.890;4.722;2022-08-20T07:32:37;22.0;;;4.8;;
6561;SDS011;3314;50.890;4.722;2022-08-20T07:33:40;23.1;;;5.3;;
6561;SDS011;3314;50.890;4.722;2022-08-20T07:35:41;19.0;;;5.0;;
6561;SDS011;3314;50.890;4.722;2022-08-20T07:37:41;20.3;;;5.9;;
6561;SDS011;3314;50.890;4.722;2022-08-20T07:39:42;17.5;;;6.1;;
6561;SDS011;3314;50.890;4.722;2022-08-20T07:41:41;16.3;;;4.8;;
6561;SDS011;3314;50.890;4.722;2022-08-20T07:43:41;25.4;;;5.7;;
6561;SDS011;3314;50.890;4.722;2022-08-20T07:45:42;18.3;;;5.5;;
6561;SDS011;3314;50.890;4.722;2022-08-20T07:47:42;20.0;;;5.2;;
6561;SDS011;3314;50.890;4.722;2022-08-20T07:49:42;19.1;;;5.1;;
6561;SDS011;3314;50.890;4.722;2022-08-20T07:51:42;29.3;;;6.1;;
6561;SDS011;3314;50.890;4.722;2022-08-20T07:53:41;24.9;;;6.4;;
6561;SDS011;3314;50.890;4.722;2022-08-20T07:55:41;19.1;;;5.0;;
6561;SDS011;3314;50.890;4.722;2022-08-20T07:57:41;19.1;;;5.6;;
6561;SDS011;3314;50.890;4.722;2022-08-20T07:59:41;18.5;;;5.5;;
6561;SDS011;3314;50.890;4.722;2022-08-20T08:01:41;17.7;;;5.2;;
6561;SDS011;3314;50.890;4.722;2022-08-20T08:03:40;17.9;;;5.4;;
6561;SDS011;3314;50.890;4.722;2022-08-20T08:05:41;22.8;;;5.4;;
6561;SDS011;3314;50.890;4.722;2022-08-20T08:07:41;14.8;;;4.6;;
6561;SDS011;3314;50.890;4.722;2022-08-20T08:09:41;18.9;;;5.0;;
6561;SDS011;3314;50.890;4.722;2022-08-20T08:11:42;17.9;;;5.1;;
6561;SDS011;3314;50.890;4.722;2022-08-20T08:13:43;20.2;;;5.6;;
6561;SDS011;3314;50.890;4.722;2022-08-20T08:15:44;20.3;;;5.2;;
6561;SDS011;3314;50.890;4.722;2022-08-20T08:17:45;19.7;;;5.2;;
6561;SDS011;3314;50.890;4.722;2022-08-20T08:19:39;27.5;;;5.6;;
6561;SDS011;3314;50.890;4.722;2022-08-20T08:21:41;18.3;;;4.3;;
6561;SDS011;3314;50.890;4.722;2022-08-20T08:23:44;20.2;;;5.5;;
6561;SDS011;3314;50.890;4.722;2022-08-20T08:26:03;24.6;;;6.6;;
6561;SDS011;3314;50.890;4.722;2022-08-20T08:27:39;17.6;;;5.4;;
6561;SDS011;3314;50.890;4.722;2022-08-20T08:29:39;16.8;;;5.5;;
6561;SDS011;3314;50.890;4.722;2022-08-20T08:31:40;20.0;;;6.1;;
6561;SDS011;3314;50.890;4.722;2022-08-20T08:33:40;18.7;;;6.5;;
6561;SDS011;3314;50.890;4.722;2022-08-20T08:35:39;19.9;;;5.7;;
6561;SDS011;3314;50.890;4.722;2022-08-20T08:37:39;21.9;;;6.2;;
6561;SDS011;3314;50.890;4.722;2022-08-20T08:39:39;17.3;;;7.1;;
6561;SDS011;3314;50.890;4.722;2022-08-20T08:41:40;24.0;;;7.8;;
6561;SDS011;3314;50.890;4.722;2022-08-20T08:43:40;25.3;;;6.5;;
6561;SDS011;3314;50.890;4.722;2022-08-20T08:45:43;18.3;;;6.3;;
6561;SDS011;3314;50.890;4.722;2022-08-20T08:47:43;20.4;;;6.7;;
6561;SDS011;3314;50.890;4.722;2022-08-20T08:49:43;22.3;;;6.5;;
6561;SDS011;3314;50.890;4.722;2022-08-20T08:51:35;18.8;;;6.7;;
6561;SDS011;3314;50.890;4.722;2022-08-20T08:53:36;20.0;;;5.8;;
6561;SDS011;3314;50.890;4.722;2022-08-20T08:55:37;16.0;;;5.2;;
6561;SDS011;3314;50.890;4.722;2022-08-20T08:57:36;17.5;;;6.0;;
6561;SDS011;3314;50.890;4.722;2022-08-20T08:59:36;19.1;;;5.9;;
6561;SDS011;3314;50.890;4.722;2022-08-20T09:01:39;16.4;;;5.2;;
6561;SDS011;3314;50.890;4.722;2022-08-20T09:03:40;21.6;;;6.5;;
6561;SDS011;3314;50.890;4.722;2022-08-20T09:05:43;18.8;;;4.8;;
6561;SDS011;3314;50.890;4.722;2022-08-20T09:07:33;13.8;;;4.9;;
6561;SDS011;3314;50.890;4.722;2022-08-20T09:09:34;11.7;;;3.7;;
6561;SDS011;3314;50.890;4.722;2022-08-20T09:11:43;14.1;;;4.3;;
6561;SDS011;3314;50.890;4.722;2022-08-20T09:13:33;13.7;;;3.9;;
6561;SDS011;3314;50.890;4.722;2022-08-20T09:15:32;13.6;;;3.7;;
6561;SDS011;3314;50.890;4.722;2022-08-20T09:17:32;16.8;;;3.2;;
6561;SDS011;3314;50.890;4.722;2022-08-20T09:19:32;13.2;;;3.2;;
6561;SDS011;3314;50.890;4.722;2022-08-20T09:21:32;12.2;;;2.7;;
6561;SDS011;3314;50.890;4.722;2022-08-20T09:23:32;10.8;;;2.6;;
6561;SDS011;3314;50.890;4.722;2022-08-20T09:25:32;11.9;;;2.6;;
6561;SDS011;3314;50.890;4.722;2022-08-20T09:27:32;13.2;;;2.9;;
6561;SDS011;3314;50.890;4.722;2022-08-20T09:29:32;12.8;;;3.2;;
6561;SDS011;3314;50.890;4.722;2022-08-20T09:31:32;15.4;;;3.4;;
6561;SDS011;3314;50.890;4.722;2022-08-20T09:33:32;14.6;;;3.5;;
6561;SDS011;3314;50.890;4.722;2022-08-20T09:35:32;11.7;;;2.6;;
6561;SDS011;3314;50.890;4.722;2022-08-20T09:37:32;10.8;;;2.7;;
6561;SDS011;3314;50.890;4.722;2022-08-20T09:39:32;15.9;;;2.6;;
6561;SDS011;3314;50.890;4.722;2022-08-20T09:41:31;10.1;;;1.8;;
6561;SDS011;3314;50.890;4.722;2022-08-20T09:43:31;11.4;;;2.1;;
6561;SDS011;3314;50.890;4.722;2022-08-20T09:45:31;9.6;;;2.1;;
6561;SDS011;3314;50.890;4.722;2022-08-20T09:47:31;11.9;;;1.9;;
6561;SDS011;3314;50.890;4.722;2022-08-20T09:49:31;12.5;;;2.0;;
6561;SDS011;3314;50.890;4.722;2022-08-20T09:51:31;13.9;;;2.0;;
6561;SDS011;3314;50.890;4.722;2022-08-20T09:53:31;11.1;;;1.7;;
6561;SDS011;3314;50.890;4.722;2022-08-20T09:55:32;10.9;;;2.1;;
6561;SDS011;3314;50.890;4.722;2022-08-20T09:57:33;8.4;;;1.7;;
6561;SDS011;3314;50.890;4.722;2022-08-20T09:59:33;11.2;;;1.8;;
6561;SDS011;3314;50.890;4.722;2022-08-20T10:01:34;13.3;;;1.5;;
6561;SDS011;3314;50.890;4.722;2022-08-20T10:03:33;10.5;;;1.5;;
6561;SDS011;3314;50.890;4.722;2022-08-20T10:05:33;7.8;;;1.6;;
6561;SDS011;3314;50.890;4.722;2022-08-20T10:07:34;17.3;;;2.1;;
6561;SDS011;3314;50.890;4.722;2022-08-20T10:09:34;11.0;;;2.0;;
6561;SDS011;3314;50.890;4.722;2022-08-20T10:11:34;11.4;;;1.7;;
6561;SDS011;3314;50.890;4.722;2022-08-20T10:13:33;12.3;;;2.4;;
6561;SDS011;3314;50.890;4.722;2022-08-20T10:15:33;9.8;;;1.6;;
6561;SDS011;3314;50.890;4.722;2022-08-20T10:17:35;9.8;;;1.7;;
6561;SDS011;3314;50.890;4.722;2022-08-20T10:19:35;11.0;;;1.7;;
6561;SDS011;3314;50.890;4.722;2022-08-20T10:21:35;9.6;;;1.5;;
6561;SDS011;3314;50.890;4.722;2022-08-20T10:23:35;10.6;;;1.9;;
6561;SDS011;3314;50.890;4.722;2022-08-20T10:25:35;11.4;;;1.9;;
6561;SDS011;3314;50.890;4.722;2022-08-20T10:27:35;7.8;;;1.8;;
6561;SDS011;3314;50.890;4.722;2022-08-20T10:29:35;10.3;;;1.6;;
6561;SDS011;3314;50.890;4.722;2022-08-20T10:31:34;9.5;;;1.6;;
6561;SDS011;3314;50.890;4.722;2022-08-20T10:33:34;8.4;;;1.7;;
6561;SDS011;3314;50.890;4.722;2022-08-20T10:35:34;11.8;;;1.9;;
6561;SDS011;3314;50.890;4.722;2022-08-20T10:37:34;10.3;;;1.7;;
6561;SDS011;3314;50.890;4.722;2022-08-20T10:39:33;10.1;;;1.6;;
6561;SDS011;3314;50.890;4.722;2022-08-20T10:41:33;11.4;;;1.9;;
6561;SDS011;3314;50.890;4.722;2022-08-20T10:43:33;10.7;;;1.6;;
6561;SDS011;3314;50.890;4.722;2022-08-20T10:45:33;11.7;;;1.9;;
6561;SDS011;3314;50.890;4.722;2022-08-20T10:47:32;13.2;;;1.5;;
6561;SDS011;3314;50.890;4.722;2022-08-20T10:49:32;12.0;;;1.6;;
6561;SDS011;3314;50.890;4.722;2022-08-20T10:51:32;10.6;;;1.6;;
6561;SDS011;3314;50.890;4.722;2022-08-20T10:53:32;11.5;;;1.6;;
6561;SDS011;3314;50.890;4.722;2022-08-20T10:55:31;11.1;;;1.5;;
6561;SDS011;3314;50.890;4.722;2022-08-20T10:57:31;10.6;;;1.7;;
6561;SDS011;3314;50.890;4.722;2022-08-20T10:59:33;9.7;;;1.7;;
6561;SDS011;3314;50.890;4.722;2022-08-20T11:01:35;11.1;;;1.4;;
6561;SDS011;3314;50.890;4.722;2022-08-20T11:03:35;12.2;;;2.2;;
6561;SDS011;3314;50.890;4.722;2022-08-20T11:05:35;9.5;;;1.8;;
6561;SDS011;3314;50.890;4.722;2022-08-20T11:07:35;9.8;;;1.4;;
6561;SDS011;3314;50.890;4.722;2022-08-20T11:09:35;13.5;;;1.7;;
6561;SDS011;3314;50.890;4.722;2022-08-20T11:11:35;9.5;;;1.2;;
6561;SDS011;3314;50.890;4.722;2022-08-20T11:13:35;11.3;;;1.7;;
6561;SDS011;3314;50.890;4.722;2022-08-20T11:15:36;8.6;;;1.6;;
6561;SDS011;3314;50.890;4.722;2022-08-20T11:17:38;11.3;;;1.6;;
6561;SDS011;3314;50.890;4.722;2022-08-20T11:19:38;16.3;;;1.7;;
6561;SDS011;3314;50.890;4.722;2022-08-20T11:21:28;10.1;;;1.4;;
6561;SDS011;3314;50.890;4.722;2022-08-20T11:23:28;11.4;;;1.7;;
6561;SDS011;3314;50.890;4.722;2022-08-20T11:25:29;9.7;;;1.8;;
6561;SDS011;3314;50.890;4.722;2022-08-20T11:27:29;13.3;;;1.5;;
6561;SDS011;3314;50.890;4.722;2022-08-20T11:29:30;15.6;;;2.7;;
6561;SDS011;3314;50.890;4.722;2022-08-20T11:31:30;9.3;;;1.3;;
6561;SDS011;3314;50.890;4.722;2022-08-20T11:33:30;9.2;;;1.8;;
6561;SDS011;3314;50.890;4.722;2022-08-20T11:35:31;9.7;;;1.7;;
6561;SDS011;3314;50.890;4.722;2022-08-20T11:37:31;11.0;;;1.8;;
6561;SDS011;3314;50.890;4.722;2022-08-20T11:39:31;13.0;;;1.8;;
6561;SDS011;3314;50.890;4.722;2022-08-20T11:41:31;8.1;;;1.5;;
6561;SDS011;3314;50.890;4.722;2022-08-20T11:43:31;11.7;;;1.6;;
6561;SDS011;3314;50.890;4.722;2022-08-20T11:45:31;9.2;;;1.6;;
6561;SDS011;3314;50.890;4.722;2022-08-20T11:47:33;12.8;;;2.8;;
6561;SDS011;3314;50.890;4.722;2022-08-20T11:49:33;9.8;;;1.5;;
6561;SDS011;3314;50.890;4.722;2022-08-20T11:51:33;11.3;;;1.9;;
6561;SDS011;3314;50.890;4.722;2022-08-20T11:53:33;13.7;;;1.9;;
6561;SDS011;3314;50.890;4.722;2022-08-20T11:55:33;8.4;;;1.5;;
6561;SDS011;3314;50.890;4.722;2022-08-20T11:57:34;9.6;;;1.4;;
6561;SDS011;3314;50.890;4.722;2022-08-20T11:59:34;11.1;;;1.8;;
6561;SDS011;3314;50.890;4.722;2022-08-20T12:01:33;9.7;;;1.4;;
6561;SDS011;3314;50.890;4.722;2022-08-20T12:03:33;12.9;;;2.1;;
6561;SDS011;3314;50.890;4.722;2022-08-20T12:05:33;11.2;;;1.7;;
6561;SDS011;3314;50.890;4.722;2022-08-20T12:07:32;11.2;;;1.9;;
6561;SDS011;3314;50.890;4.722;2022-08-20T12:09:32;10.4;;;1.7;;
6561;SDS011;3314;50.890;4.722;2022-08-20T12:11:32;11.4;;;1.8;;
6561;SDS011;3314;50.890;4.722;2022-08-20T12:13:32;8.7;;;1.7;;
6561;SDS011;3314;50.890;4.722;2022-08-20T12:15:32;11.9;;;2.1;;
6561;SDS011;3314;50.890;4.722;2022-08-20T12:17:32;12.0;;;1.6;;
6561;SDS011;3314;50.890;4.722;2022-08-20T12:19:32;8.8;;;1.9;;
6561;SDS011;3314;50.890;4.722;2022-08-20T12:21:32;13.2;;;1.8;;
6561;SDS011;3314;50.890;4.722;2022-08-20T12:23:31;9.7;;;1.9;;
6561;SDS011;3314;50.890;4.722;2022-08-20T12:25:31;11.6;;;1.6;;
6561;SDS011;3314;50.890;4.722;2022-08-20T12:27:32;10.1;;;1.6;;
6561;SDS011;3314;50.890;4.722;2022-08-20T12:29:32;8.9;;;1.7;;
6561;SDS011;3314;50.890;4.722;2022-08-20T12:31:32;9.3;;;1.7;;
6561;SDS011;3314;50.890;4.722;2022-08-20T12:33:31;10.3;;;1.9;;
6561;SDS011;3314;50.890;4.722;2022-08-20T12:35:31;10.4;;;1.5;;
6561;SDS011;3314;50.890;4.722;2022-08-20T12:37:31;8.7;;;1.3;;